Погода Старая Дубрована 2 недели

Минская область, Белоруссия

17 - 30 июля
  • 17июля
    Сегодня
    +19°
    +31°
    Практически безоблачно
    ВремяПогодаТемператураВлажностьДавлениеВетер, м/сВероятность осадков
    00:00Облачно с прояснениями+23°C69 %751 мм2.4 м/с2 %
    03:00Ясно и безоблачно+22°C69 %750 мм3.4 м/с2 %
    06:00Облачно с прояснениями+21°C73 %750 мм3.9 м/с2 %
    09:00Облачно с прояснениями+25°C83 %752 мм2.7 м/с10 %
    12:00Небольшая облачность+29°C65 %752 мм2.8 м/с3 %
    15:00Практически безоблачно+31°C56 %752 мм3.6 м/с6 %
    18:00Небольшая облачность+30°C56 %752 мм2.7 м/с9 %
    21:00Облачно с прояснениями+27°C67 %752 мм1.8 м/с11 %
  • 18июля
    Четверг
    +16°
    +27°
    Облачно с прояснениями
    ВремяПогодаТемператураВлажностьДавлениеВетер, м/сВероятность осадков
    00:00Облачно с прояснениями+23°C74 %753 мм2.4 м/с2 %
    03:00Ясно и безоблачно+21°C79 %753 мм1.9 м/с2 %
    06:00Облачно с прояснениями+20°C85 %753 мм1.4 м/с5 %
    09:00Пасмурно, небольшой дождь+21°C80 %753 мм3.2 м/с75 %
    12:00Облачно с прояснениями, небольшой дождь+23°C73 %753 мм2.7 м/с70 %
    15:00Облачно с прояснениями+25°C61 %753 мм2.8 м/с29 %
    18:00Практически безоблачно+27°C51 %752 мм4.7 м/с17 %
    21:00Ясно и безоблачно+24°C58 %753 мм3.1 м/с17 %
  • 19июля
    Пятница
    +14°
    +25°
    Ясно и безоблачно
    ВремяПогодаТемператураВлажностьДавлениеВетер, м/сВероятность осадков
    00:00Ясно и безоблачно+20°C65 %753 мм3.2 м/с2 %
    03:00Ясно и безоблачно+18°C74 %753 мм3.1 м/с2 %
    06:00Ясно и безоблачно+16°C78 %754 мм3.6 м/с2 %
    09:00Практически безоблачно+20°C67 %754 мм3.6 м/с2 %
    12:00Небольшая облачность+23°C44 %754 мм4.1 м/с2 %
    15:00Ясно и безоблачно+25°C41 %753 мм4.6 м/с2 %
    18:00Ясно и безоблачно+25°C41 %752 мм4.6 м/с2 %
    21:00Ясно и безоблачно+22°C56 %751 мм2.7 м/с2 %
  • 20июля
    Суббота
    +13°
    +25°
    Облачно с прояснениями
    ВремяПогодаТемператураВлажностьДавлениеВетер, м/сВероятность осадков
    00:00Ясно и безоблачно+19°C69 %751 мм2.1 м/с2 %
    03:00Ясно и безоблачно+16°C77 %751 мм2.3 м/с2 %
    06:00Ясно и безоблачно+14°C79 %750 мм2.5 м/с2 %
    09:00Практически безоблачно+19°C61 %750 мм2.2 м/с2 %
    12:00Облачно с прояснениями+24°C48 %750 мм3.7 м/с13 %
    15:00Облачно с прояснениями+24°C40 %749 мм3.8 м/с14 %
    18:00Практически безоблачно+24°C35 %748 мм3.5 м/с7 %
    21:00Ясно и безоблачно+20°C52 %748 мм2.1 м/с2 %
  • 21июля
    Воскресенье
    +14°
    +25°
    Ясно и безоблачно
    ВремяПогодаТемператураВлажностьДавлениеВетер, м/сВероятность осадков
    00:00Ясно и безоблачно+17°C65 %748 мм1.9 м/с2 %
    03:00Ясно и безоблачно+14°C81 %747 мм2.3 м/с2 %
    06:00Ясно и безоблачно+14°C84 %747 мм1.5 м/с2 %
    09:00Ясно и безоблачно+20°C62 %747 мм1.2 м/с2 %
    12:00Практически безоблачно+24°C44 %747 мм1.3 м/с32 %
    15:00Ясно и безоблачно+25°C41 %746 мм1.7 м/с37 %
    18:00Практически безоблачно+24°C38 %746 мм1.9 м/с23 %
    21:00Практически безоблачно+22°C57 %746 мм1.7 м/с9 %
Мы используем cookies
Соглашаюсь